Louisville, Illinois
Current Conditions -  °F | °C
As of 8:55 AM on Wednesday 22 Oct 2014 (Local Time) from KFOA Reporting Station
Clear Clear  
Wind Chill: 42°   Ceiling: Unl
Heat Index: 45°   Visibility: 10mi
Dew Point: 41°   Wind: 6mph
Humidity: 85%   Direction: 70°ENE
Pressure: 30.34"   Gusts: NA
Location:  38.77°N, 88.5°W
Report Text: KFOA 221355Z AUTO 07005KT 10SM CLR 07/05 A3034 RMK AO2 T00720049
Loading
Personal Weather Stations






























Interactive Weather Map
Tropical Storm Tracking
New forecast layout! Learn more

10-Day Weather Forecast

Advertisements
Track Severe Weather on mobile